sensor_id;sensor_type;location;lat;lon;timestamp;pressure;altitude;pressure_sealevel;temperature
11926;BMP180;6022;48.768;18.608;2022-09-01T00:00:12;98498.59;;;18.26
11926;BMP180;6022;48.768;18.608;2022-09-01T00:02:41;98501.31;;;18.25
11926;BMP180;6022;48.768;18.608;2022-09-01T00:05:09;98496.72;;;18.19
11926;BMP180;6022;48.768;18.608;2022-09-01T00:07:37;98501.88;;;18.19
11926;BMP180;6022;48.768;18.608;2022-09-01T00:10:06;98502.16;;;18.16
11926;BMP180;6022;48.768;18.608;2022-09-01T00:12:35;98497.81;;;18.17
11926;BMP180;6022;48.768;18.608;2022-09-01T00:15:08;98490.78;;;18.18
11926;BMP180;6022;48.768;18.608;2022-09-01T00:17:36;98497.56;;;18.19
11926;BMP180;6022;48.768;18.608;2022-09-01T00:20:04;98494.88;;;18.12
11926;BMP180;6022;48.768;18.608;2022-09-01T00:22:32;98491.38;;;18.13
11926;BMP180;6022;48.768;18.608;2022-09-01T00:25:00;98485.69;;;18.09
11926;BMP180;6022;48.768;18.608;2022-09-01T00:27:28;98489.22;;;18.08
11926;BMP180;6022;48.768;18.608;2022-09-01T00:29:58;98493.41;;;18.09
11926;BMP180;6022;48.768;18.608;2022-09-01T00:32:27;98497.44;;;18.12
11926;BMP180;6022;48.768;18.608;2022-09-01T00:34:55;98492.97;;;18.14
11926;BMP180;6022;48.768;18.608;2022-09-01T00:37:22;98494.47;;;18.16
11926;BMP180;6022;48.768;18.608;2022-09-01T00:39:50;98484.56;;;18.21
11926;BMP180;6022;48.768;18.608;2022-09-01T00:42:18;98497.25;;;18.22
11926;BMP180;6022;48.768;18.608;2022-09-01T00:44:45;98489.84;;;18.19
11926;BMP180;6022;48.768;18.608;2022-09-01T00:47:14;98490.78;;;18.18
11926;BMP180;6022;48.768;18.608;2022-09-01T00:49:47;98490.78;;;18.18
11926;BMP180;6022;48.768;18.608;2022-09-01T00:52:23;98489.31;;;18.16
11926;BMP180;6022;48.768;18.608;2022-09-01T00:54:59;98483.53;;;18.14
11926;BMP180;6022;48.768;18.608;2022-09-01T00:57:28;98483.66;;;18.13
11926;BMP180;6022;48.768;18.608;2022-09-01T01:00:01;98481.38;;;18.10
11926;BMP180;6022;48.768;18.608;2022-09-01T01:02:30;98486.75;;;18.07
11926;BMP180;6022;48.768;18.608;2022-09-01T01:04:58;98483.22;;;18.08
11926;BMP180;6022;48.768;18.608;2022-09-01T01:07:27;98484.59;;;18.12
11926;BMP180;6022;48.768;18.608;2022-09-01T01:09:55;98484.19;;;18.16
11926;BMP180;6022;48.768;18.608;2022-09-01T01:12:23;98485.09;;;18.24
11926;BMP180;6022;48.768;18.608;2022-09-01T01:14:54;98485.66;;;18.18
11926;BMP180;6022;48.768;18.608;2022-09-01T01:17:24;98484.06;;;18.17
11926;BMP180;6022;48.768;18.608;2022-09-01T01:19:55;98487.56;;;18.17
11926;BMP180;6022;48.768;18.608;2022-09-01T01:23:09;98487.66;;;18.24
11926;BMP180;6022;48.768;18.608;2022-09-01T01:25:46;98475.81;;;18.14
11926;BMP180;6022;48.768;18.608;2022-09-01T01:28:16;98469.19;;;18.12
11926;BMP180;6022;48.768;18.608;2022-09-01T01:30:54;98475.28;;;18.11
11926;BMP180;6022;48.768;18.608;2022-09-01T01:33:27;98470.81;;;18.13
11926;BMP180;6022;48.768;18.608;2022-09-01T01:35:56;98466.09;;;18.17
11926;BMP180;6022;48.768;18.608;2022-09-01T01:38:25;98463.78;;;18.15
11926;BMP180;6022;48.768;18.608;2022-09-01T01:40:53;98468.53;;;18.10
11926;BMP180;6022;48.768;18.608;2022-09-01T01:43:23;98469.50;;;18.09
11926;BMP180;6022;48.768;18.608;2022-09-01T01:45:55;98456.91;;;18.06
11926;BMP180;6022;48.768;18.608;2022-09-01T01:48:25;98469.06;;;18.04
11926;BMP180;6022;48.768;18.608;2022-09-01T01:50:55;98466.78;;;18.01
11926;BMP180;6022;48.768;18.608;2022-09-01T01:53:27;98471.09;;;18.00
11926;BMP180;6022;48.768;18.608;2022-09-01T01:55:55;98472.88;;;18.00
11926;BMP180;6022;48.768;18.608;2022-09-01T01:58:24;98471.38;;;18.07
11926;BMP180;6022;48.768;18.608;2022-09-01T02:00:54;98471.38;;;18.07
11926;BMP180;6022;48.768;18.608;2022-09-01T02:03:31;98470.03;;;18.03
11926;BMP180;6022;48.768;18.608;2022-09-01T02:06:09;98464.91;;;18.03
11926;BMP180;6022;48.768;18.608;2022-09-01T02:08:39;98458.56;;;17.97
11926;BMP180;6022;48.768;18.608;2022-09-01T02:11:07;98455.69;;;18.00
11926;BMP180;6022;48.768;18.608;2022-09-01T02:13:35;98459.63;;;17.95
11926;BMP180;6022;48.768;18.608;2022-09-01T02:16:06;98456.81;;;17.98
11926;BMP180;6022;48.768;18.608;2022-09-01T02:18:44;98453.78;;;18.02
11926;BMP180;6022;48.768;18.608;2022-09-01T02:21:20;98443.31;;;17.96
11926;BMP180;6022;48.768;18.608;2022-09-01T02:23:56;98443.72;;;17.91
11926;BMP180;6022;48.768;18.608;2022-09-01T02:26:32;98447.63;;;17.95
11926;BMP180;6022;48.768;18.608;2022-09-01T02:29:05;98443.56;;;17.93
11926;BMP180;6022;48.768;18.608;2022-09-01T02:31:35;98446.13;;;17.93
11926;BMP180;6022;48.768;18.608;2022-09-01T02:34:07;98443.88;;;17.90
11926;BMP180;6022;48.768;18.608;2022-09-01T02:36:47;98443.56;;;17.93
11926;BMP180;6022;48.768;18.608;2022-09-01T02:39:23;98453.47;;;17.88
11926;BMP180;6022;48.768;18.608;2022-09-01T02:41:51;98452.13;;;17.84
11926;BMP180;6022;48.768;18.608;2022-09-01T02:44:20;98461.44;;;17.85
11926;BMP180;6022;48.768;18.608;2022-09-01T02:46:49;98445.25;;;17.84
11926;BMP180;6022;48.768;18.608;2022-09-01T02:49:21;98454.53;;;17.85
11926;BMP180;6022;48.768;18.608;2022-09-01T02:51:58;98460.50;;;17.86
11926;BMP180;6022;48.768;18.608;2022-09-01T02:54:30;98444.72;;;17.81
11926;BMP180;6022;48.768;18.608;2022-09-01T02:56:57;98458.50;;;17.80
11926;BMP180;6022;48.768;18.608;2022-09-01T02:59:27;98454.56;;;17.76
11926;BMP180;6022;48.768;18.608;2022-09-01T03:01:55;98450.41;;;17.75
11926;BMP180;6022;48.768;18.608;2022-09-01T03:04:23;98444.75;;;17.72
11926;BMP180;6022;48.768;18.608;2022-09-01T03:06:53;98435.28;;;17.72
11926;BMP180;6022;48.768;18.608;2022-09-01T03:09:21;98448.28;;;17.71
11926;BMP180;6022;48.768;18.608;2022-09-01T03:11:51;98445.03;;;17.59
11926;BMP180;6022;48.768;18.608;2022-09-01T03:14:20;98452.91;;;17.58
11926;BMP180;6022;48.768;18.608;2022-09-01T03:16:48;98459.75;;;17.57
11926;BMP180;6022;48.768;18.608;2022-09-01T03:19:16;98453.47;;;17.52
11926;BMP180;6022;48.768;18.608;2022-09-01T03:21:45;98445.06;;;17.50
11926;BMP180;6022;48.768;18.608;2022-09-01T03:24:16;98450.34;;;17.48
11926;BMP180;6022;48.768;18.608;2022-09-01T03:26:45;98443.72;;;17.46
11926;BMP180;6022;48.768;18.608;2022-09-01T03:29:17;98442.53;;;17.40
11926;BMP180;6022;48.768;18.608;2022-09-01T03:31:45;98454.69;;;17.39
11926;BMP180;6022;48.768;18.608;2022-09-01T03:34:13;98453.19;;;17.36
11926;BMP180;6022;48.768;18.608;2022-09-01T03:36:42;98456.72;;;17.35
11926;BMP180;6022;48.768;18.608;2022-09-01T03:39:18;98456.72;;;17.35
11926;BMP180;6022;48.768;18.608;2022-09-01T03:41:46;98458.19;;;17.38
11926;BMP180;6022;48.768;18.608;2022-09-01T03:44:14;98461.03;;;17.35
11926;BMP180;6022;48.768;18.608;2022-09-01T03:46:43;98459.56;;;17.32
11926;BMP180;6022;48.768;18.608;2022-09-01T03:49:11;98450.53;;;17.28
11926;BMP180;6022;48.768;18.608;2022-09-01T03:51:42;98443.75;;;17.27
11926;BMP180;6022;48.768;18.608;2022-09-01T03:54:11;98450.53;;;17.28
11926;BMP180;6022;48.768;18.608;2022-09-01T03:56:39;98448.75;;;17.29
11926;BMP180;6022;48.768;18.608;2022-09-01T03:59:08;98447.16;;;17.28
11926;BMP180;6022;48.768;18.608;2022-09-01T04:01:44;98444.59;;;17.28
11926;BMP180;6022;48.768;18.608;2022-09-01T04:04:11;98448.09;;;17.27
11926;BMP180;6022;48.768;18.608;2022-09-01T04:06:45;98449.31;;;17.32
11926;BMP180;6022;48.768;18.608;2022-09-01T04:09:12;98459.56;;;17.32
11926;BMP180;6022;48.768;18.608;2022-09-01T04:11:40;98460.66;;;17.30
11926;BMP180;6022;48.768;18.608;2022-09-01T04:14:12;98474.81;;;17.34
11926;BMP180;6022;48.768;18.608;2022-09-01T04:16:40;98476.72;;;17.32
11926;BMP180;6022;48.768;18.608;2022-09-01T04:19:27;98468.72;;;17.35
11926;BMP180;6022;48.768;18.608;2022-09-01T04:21:59;98466.72;;;17.29
11926;BMP180;6022;48.768;18.608;2022-09-01T04:24:30;98468.72;;;17.35
11926;BMP180;6022;48.768;18.608;2022-09-01T04:27:01;98456.97;;;17.41
11926;BMP180;6022;48.768;18.608;2022-09-01T04:29:29;98462.91;;;17.42
11926;BMP180;6022;48.768;18.608;2022-09-01T04:32:09;98464.13;;;17.38
11926;BMP180;6022;48.768;18.608;2022-09-01T04:34:39;98460.63;;;17.39
11926;BMP180;6022;48.768;18.608;2022-09-01T04:37:14;98468.47;;;17.38
11926;BMP180;6022;48.768;18.608;2022-09-01T04:39:53;98472.38;;;17.41
11926;BMP180;6022;48.768;18.608;2022-09-01T04:42:25;98474.66;;;17.44
11926;BMP180;6022;48.768;18.608;2022-09-01T04:44:55;98477.22;;;17.44
11926;BMP180;6022;48.768;18.608;2022-09-01T04:47:24;98485.31;;;17.40
11926;BMP180;6022;48.768;18.608;2022-09-01T04:50:03;98474.09;;;17.50
11926;BMP180;6022;48.768;18.608;2022-09-01T04:52:40;98473.16;;;17.51
11926;BMP180;6022;48.768;18.608;2022-09-01T04:55:12;98474.66;;;17.54
11926;BMP180;6022;48.768;18.608;2022-09-01T04:57:48;98473.97;;;17.52
11926;BMP180;6022;48.768;18.608;2022-09-01T05:00:19;98476.53;;;17.52
11926;BMP180;6022;48.768;18.608;2022-09-01T05:02:53;98467.34;;;17.49
11926;BMP180;6022;48.768;18.608;2022-09-01T05:05:22;98480.69;;;17.62
11926;BMP180;6022;48.768;18.608;2022-09-01T05:07:49;98478.78;;;17.64
11926;BMP180;6022;48.768;18.608;2022-09-01T05:10:22;98466.41;;;17.60
11926;BMP180;6022;48.768;18.608;2022-09-01T05:12:55;98469.88;;;17.59
11926;BMP180;6022;48.768;18.608;2022-09-01T05:15:23;98471.50;;;17.69
11926;BMP180;6022;48.768;18.608;2022-09-01T05:17:50;98464.19;;;17.65
11926;BMP180;6022;48.768;18.608;2022-09-01T05:20:21;98471.91;;;17.65
11926;BMP180;6022;48.768;18.608;2022-09-01T05:22:50;98461.38;;;17.68
11926;BMP180;6022;48.768;18.608;2022-09-01T05:25:18;98464.47;;;17.71
11926;BMP180;6022;48.768;18.608;2022-09-01T05:27:45;98463.25;;;17.75
11926;BMP180;6022;48.768;18.608;2022-09-01T05:30:17;98443.19;;;17.88
11926;BMP180;6022;48.768;18.608;2022-09-01T05:32:44;98450.72;;;17.99
11926;BMP180;6022;48.768;18.608;2022-09-01T05:35:15;98447.03;;;18.11
11926;BMP180;6022;48.768;18.608;2022-09-01T05:37:42;98444.66;;;18.26
11926;BMP180;6022;48.768;18.608;2022-09-01T05:40:11;98449.91;;;18.34
11926;BMP180;6022;48.768;18.608;2022-09-01T05:42:45;98451.53;;;18.53
11926;BMP180;6022;48.768;18.608;2022-09-01T05:45:14;98453.16;;;18.71
11926;BMP180;6022;48.768;18.608;2022-09-01T05:47:46;98441.94;;;18.72
11926;BMP180;6022;48.768;18.608;2022-09-01T05:50:14;98446.03;;;18.82
11926;BMP180;6022;48.768;18.608;2022-09-01T05:52:42;98442.69;;;18.82
11926;BMP180;6022;48.768;18.608;2022-09-01T05:55:13;98446.75;;;18.92
11926;BMP180;6022;48.768;18.608;2022-09-01T05:57:41;98450.38;;;19.16
11926;BMP180;6022;48.768;18.608;2022-09-01T06:00:09;98454.25;;;19.37
11926;BMP180;6022;48.768;18.608;2022-09-01T06:02:40;98456.69;;;20.22
11926;BMP180;6022;48.768;18.608;2022-09-01T06:05:09;98446.56;;;20.93
11926;BMP180;6022;48.768;18.608;2022-09-01T06:07:37;98441.25;;;20.87
11926;BMP180;6022;48.768;18.608;2022-09-01T06:10:08;98448.31;;;20.69
11926;BMP180;6022;48.768;18.608;2022-09-01T06:12:35;98450.81;;;20.53
11926;BMP180;6022;48.768;18.608;2022-09-01T06:15:03;98453.44;;;20.20
11926;BMP180;6022;48.768;18.608;2022-09-01T06:17:33;98455.47;;;20.01
11926;BMP180;6022;48.768;18.608;2022-09-01T06:20:03;98462.34;;;19.93
11926;BMP180;6022;48.768;18.608;2022-09-01T06:22:36;98464.38;;;19.81
11926;BMP180;6022;48.768;18.608;2022-09-01T06:25:05;98464.59;;;19.70
11926;BMP180;6022;48.768;18.608;2022-09-01T06:27:35;98463.13;;;19.68
11926;BMP180;6022;48.768;18.608;2022-09-01T06:30:08;98469.91;;;19.69
11926;BMP180;6022;48.768;18.608;2022-09-01T06:32:50;98470.34;;;19.65
11926;BMP180;6022;48.768;18.608;2022-09-01T06:35:20;98466.66;;;19.84
11926;BMP180;6022;48.768;18.608;2022-09-01T06:37:47;98473.81;;;20.06
11926;BMP180;6022;48.768;18.608;2022-09-01T06:40:15;98475.31;;;20.49
11926;BMP180;6022;48.768;18.608;2022-09-01T06:42:49;98465.41;;;21.02
11926;BMP180;6022;48.768;18.608;2022-09-01T06:45:22;98473.19;;;21.10
11926;BMP180;6022;48.768;18.608;2022-09-01T06:47:52;98474.16;;;21.32
11926;BMP180;6022;48.768;18.608;2022-09-01T06:50:26;98464.13;;;21.37
11926;BMP180;6022;48.768;18.608;2022-09-01T06:53:14;98467.66;;;21.76
11926;BMP180;6022;48.768;18.608;2022-09-01T06:56:01;98472.13;;;21.90
11926;BMP180;6022;48.768;18.608;2022-09-01T06:58:29;98462.03;;;22.26
11926;BMP180;6022;48.768;18.608;2022-09-01T07:00:57;98471.53;;;22.64
11926;BMP180;6022;48.768;18.608;2022-09-01T07:03:25;98473.25;;;24.11
11926;BMP180;6022;48.768;18.608;2022-09-01T07:05:53;98470.00;;;26.10
11926;BMP180;6022;48.768;18.608;2022-09-01T07:08:41;98476.78;;;28.00
11926;BMP180;6022;48.768;18.608;2022-09-01T07:11:35;98478.22;;;28.65
11926;BMP180;6022;48.768;18.608;2022-09-01T07:14:22;98488.66;;;28.65
11926;BMP180;6022;48.768;18.608;2022-09-01T07:16:50;98479.97;;;29.38
11926;BMP180;6022;48.768;18.608;2022-09-01T07:19:38;98488.47;;;31.29
11926;BMP180;6022;48.768;18.608;2022-09-01T07:22:20;98490.50;;;31.68
11926;BMP180;6022;48.768;18.608;2022-09-01T07:25:08;98496.53;;;32.76
11926;BMP180;6022;48.768;18.608;2022-09-01T07:27:40;98487.53;;;33.76
11926;BMP180;6022;48.768;18.608;2022-09-01T07:30:11;98481.75;;;34.75
11926;BMP180;6022;48.768;18.608;2022-09-01T07:32:38;98487.16;;;35.11
11926;BMP180;6022;48.768;18.608;2022-09-01T07:35:19;98490.84;;;36.03
11926;BMP180;6022;48.768;18.608;2022-09-01T07:37:47;98473.00;;;35.48
11926;BMP180;6022;48.768;18.608;2022-09-01T07:40:36;98482.78;;;35.52
11926;BMP180;6022;48.768;18.608;2022-09-01T07:43:26;98486.38;;;35.68
11926;BMP180;6022;48.768;18.608;2022-09-01T07:46:02;98490.59;;;36.10
11926;BMP180;6022;48.768;18.608;2022-09-01T07:48:55;98478.16;;;33.03
11926;BMP180;6022;48.768;18.608;2022-09-01T07:51:43;98482.53;;;30.82
11926;BMP180;6022;48.768;18.608;2022-09-01T07:54:11;98482.84;;;31.55
11926;BMP180;6022;48.768;18.608;2022-09-01T07:56:40;98477.75;;;32.05
11926;BMP180;6022;48.768;18.608;2022-09-01T07:59:07;98479.47;;;33.33
11926;BMP180;6022;48.768;18.608;2022-09-01T08:01:41;98482.66;;;34.00
11926;BMP180;6022;48.768;18.608;2022-09-01T08:04:09;98474.00;;;33.67
11926;BMP180;6022;48.768;18.608;2022-09-01T08:06:36;98465.16;;;32.69
11926;BMP180;6022;48.768;18.608;2022-09-01T08:09:05;98470.53;;;32.24
11926;BMP180;6022;48.768;18.608;2022-09-01T08:11:50;98473.91;;;30.75
11926;BMP180;6022;48.768;18.608;2022-09-01T08:14:28;98471.41;;;29.56
11926;BMP180;6022;48.768;18.608;2022-09-01T08:17:02;98478.19;;;29.87
11926;BMP180;6022;48.768;18.608;2022-09-01T08:19:49;98473.41;;;30.20
11926;BMP180;6022;48.768;18.608;2022-09-01T08:22:18;98483.63;;;30.92
11926;BMP180;6022;48.768;18.608;2022-09-01T08:24:51;98481.56;;;30.77
11926;BMP180;6022;48.768;18.608;2022-09-01T08:27:19;98470.00;;;30.55
11926;BMP180;6022;48.768;18.608;2022-09-01T08:29:46;98478.31;;;29.92
11926;BMP180;6022;48.768;18.608;2022-09-01T08:32:14;98478.97;;;29.39
11926;BMP180;6022;48.768;18.608;2022-09-01T08:34:42;98484.47;;;29.31
11926;BMP180;6022;48.768;18.608;2022-09-01T08:37:09;98479.75;;;29.16
11926;BMP180;6022;48.768;18.608;2022-09-01T08:39:37;98486.25;;;28.70
11926;BMP180;6022;48.768;18.608;2022-09-01T08:42:25;98483.25;;;27.91
11926;BMP180;6022;48.768;18.608;2022-09-01T08:45:46;98486.66;;;28.54
11926;BMP180;6022;48.768;18.608;2022-09-01T08:48:39;98485.00;;;29.09
11926;BMP180;6022;48.768;18.608;2022-09-01T08:51:55;98488.47;;;28.60
11926;BMP180;6022;48.768;18.608;2022-09-01T08:54:25;98484.84;;;29.35
11926;BMP180;6022;48.768;18.608;2022-09-01T08:57:05;98475.75;;;30.46
11926;BMP180;6022;48.768;18.608;2022-09-01T08:59:33;98480.38;;;30.79
11926;BMP180;6022;48.768;18.608;2022-09-01T09:08:19;98498.72;;;31.20
11926;BMP180;6022;48.768;18.608;2022-09-01T09:11:04;98491.78;;;32.00
11926;BMP180;6022;48.768;18.608;2022-09-01T09:16:46;98484.47;;;33.02
11926;BMP180;6022;48.768;18.608;2022-09-01T09:19:35;98490.47;;;32.86
11926;BMP180;6022;48.768;18.608;2022-09-01T09:22:12;98485.59;;;31.60
11926;BMP180;6022;48.768;18.608;2022-09-01T09:27:56;98480.44;;;31.76
11926;BMP180;6022;48.768;18.608;2022-09-01T09:30:29;98486.72;;;33.26
11926;BMP180;6022;48.768;18.608;2022-09-01T09:33:04;98479.53;;;33.22
11926;BMP180;6022;48.768;18.608;2022-09-01T09:35:53;98482.25;;;34.30
11926;BMP180;6022;48.768;18.608;2022-09-01T09:38:24;98482.69;;;34.22
11926;BMP180;6022;48.768;18.608;2022-09-01T09:41:15;98478.31;;;34.96
11926;BMP180;6022;48.768;18.608;2022-09-01T09:44:20;98479.34;;;33.40
11926;BMP180;6022;48.768;18.608;2022-09-01T09:46:53;98475.41;;;32.32
11926;BMP180;6022;48.768;18.608;2022-09-01T09:49:28;98470.72;;;30.73
11926;BMP180;6022;48.768;18.608;2022-09-01T09:52:16;98469.03;;;30.32
11926;BMP180;6022;48.768;18.608;2022-09-01T09:55:03;98462.75;;;30.97
11926;BMP180;6022;48.768;18.608;2022-09-01T09:57:38;98459.34;;;29.79
11926;BMP180;6022;48.768;18.608;2022-09-01T10:00:21;98446.34;;;29.72
11926;BMP180;6022;48.768;18.608;2022-09-01T10:02:59;98452.03;;;29.08
11926;BMP180;6022;48.768;18.608;2022-09-01T10:05:48;98462.59;;;28.52
11926;BMP180;6022;48.768;18.608;2022-09-01T10:11:00;98452.31;;;28.14
11926;BMP180;6022;48.768;18.608;2022-09-01T10:13:28;98451.53;;;28.07
11926;BMP180;6022;48.768;18.608;2022-09-01T10:16:06;98442.72;;;28.01
11926;BMP180;6022;48.768;18.608;2022-09-01T10:18:43;98438.78;;;27.54
11926;BMP180;6022;48.768;18.608;2022-09-01T10:21:39;98446.34;;;27.75
11926;BMP180;6022;48.768;18.608;2022-09-01T10:24:32;98448.94;;;28.50
11926;BMP180;6022;48.768;18.608;2022-09-01T10:27:24;98446.75;;;29.21
11926;BMP180;6022;48.768;18.608;2022-09-01T10:30:06;98435.47;;;29.69
11926;BMP180;6022;48.768;18.608;2022-09-01T10:32:55;98438.09;;;29.14
11926;BMP180;6022;48.768;18.608;2022-09-01T10:35:39;98436.38;;;29.81
11926;BMP180;6022;48.768;18.608;2022-09-01T10:38:20;98441.09;;;29.90
11926;BMP180;6022;48.768;18.608;2022-09-01T10:40:52;98438.50;;;29.66
11926;BMP180;6022;48.768;18.608;2022-09-01T10:43:47;98427.59;;;29.93
11926;BMP180;6022;48.768;18.608;2022-09-01T10:48:56;98427.63;;;28.59
11926;BMP180;6022;48.768;18.608;2022-09-01T10:58:20;98417.78;;;29.47
11926;BMP180;6022;48.768;18.608;2022-09-01T11:01:10;98415.25;;;29.58
11926;BMP180;6022;48.768;18.608;2022-09-01T11:03:55;98401.16;;;29.59
11926;BMP180;6022;48.768;18.608;2022-09-01T11:09:38;98405.31;;;28.94
11926;BMP180;6022;48.768;18.608;2022-09-01T11:12:45;98409.94;;;29.23
11926;BMP180;6022;48.768;18.608;2022-09-01T11:20:35;98393.47;;;28.61
11926;BMP180;6022;48.768;18.608;2022-09-01T11:26:00;98412.97;;;28.58
11926;BMP180;6022;48.768;18.608;2022-09-01T11:28:46;98398.13;;;28.52
11926;BMP180;6022;48.768;18.608;2022-09-01T11:31:24;98407.81;;;28.02
11926;BMP180;6022;48.768;18.608;2022-09-01T11:34:11;98401.19;;;28.43
11926;BMP180;6022;48.768;18.608;2022-09-01T11:44:53;98404.97;;;28.04
11926;BMP180;6022;48.768;18.608;2022-09-01T11:50:06;98392.28;;;28.88
11926;BMP180;6022;48.768;18.608;2022-09-01T11:52:37;98386.00;;;28.34
11926;BMP180;6022;48.768;18.608;2022-09-01T11:55:06;98393.31;;;28.87
11926;BMP180;6022;48.768;18.608;2022-09-01T11:57:37;98392.88;;;28.90
11926;BMP180;6022;48.768;18.608;2022-09-01T12:00:12;98394.03;;;28.69
11926;BMP180;6022;48.768;18.608;2022-09-01T12:02:51;98397.03;;;28.29
11926;BMP180;6022;48.768;18.608;2022-09-01T12:05:32;98401.09;;;28.56
11926;BMP180;6022;48.768;18.608;2022-09-01T12:08:14;98407.28;;;28.24
11926;BMP180;6022;48.768;18.608;2022-09-01T12:10:50;98385.66;;;28.61
11926;BMP180;6022;48.768;18.608;2022-09-01T12:13:22;98383.59;;;28.93
11926;BMP180;6022;48.768;18.608;2022-09-01T12:15:58;98381.53;;;29.02
11926;BMP180;6022;48.768;18.608;2022-09-01T12:18:50;98383.03;;;28.61
11926;BMP180;6022;48.768;18.608;2022-09-01T12:23:53;98378.28;;;28.45
11926;BMP180;6022;48.768;18.608;2022-09-01T12:26:36;98377.22;;;28.59
11926;BMP180;6022;48.768;18.608;2022-09-01T12:29:05;98377.63;;;28.19
11926;BMP180;6022;48.768;18.608;2022-09-01T12:31:33;98384.69;;;28.06
11926;BMP180;6022;48.768;18.608;2022-09-01T12:34:01;98371.69;;;27.93
11926;BMP180;6022;48.768;18.608;2022-09-01T12:36:31;98384.94;;;27.91
11926;BMP180;6022;48.768;18.608;2022-09-01T12:39:32;98375.00;;;27.43
11926;BMP180;6022;48.768;18.608;2022-09-01T12:44:48;98370.56;;;27.57
11926;BMP180;6022;48.768;18.608;2022-09-01T12:53:14;98372.19;;;27.38
11926;BMP180;6022;48.768;18.608;2022-09-01T12:56:16;98373.41;;;27.55
11926;BMP180;6022;48.768;18.608;2022-09-01T12:58:48;98386.00;;;27.65
11926;BMP180;6022;48.768;18.608;2022-09-01T13:01:31;98378.63;;;27.49
11926;BMP180;6022;48.768;18.608;2022-09-01T13:06:49;98374.56;;;27.40
11926;BMP180;6022;48.768;18.608;2022-09-01T13:09:16;98374.56;;;27.40
11926;BMP180;6022;48.768;18.608;2022-09-01T13:11:44;98383.53;;;27.82
11926;BMP180;6022;48.768;18.608;2022-09-01T13:14:33;98374.56;;;27.66
11926;BMP180;6022;48.768;18.608;2022-09-01T13:17:00;98375.81;;;27.18
11926;BMP180;6022;48.768;18.608;2022-09-01T13:19:28;98371.38;;;26.80
11926;BMP180;6022;48.768;18.608;2022-09-01T13:21:56;98385.75;;;26.51
11926;BMP180;6022;48.768;18.608;2022-09-01T13:24:24;98377.31;;;25.96
11926;BMP180;6022;48.768;18.608;2022-09-01T13:26:57;98380.28;;;25.86
11926;BMP180;6022;48.768;18.608;2022-09-01T13:29:44;98380.94;;;26.01
11926;BMP180;6022;48.768;18.608;2022-09-01T13:32:13;98381.78;;;26.08
11926;BMP180;6022;48.768;18.608;2022-09-01T13:34:48;98384.06;;;25.84
11926;BMP180;6022;48.768;18.608;2022-09-01T13:37:17;98379.81;;;25.77
11926;BMP180;6022;48.768;18.608;2022-09-01T13:39:45;98379.66;;;25.84
11926;BMP180;6022;48.768;18.608;2022-09-01T13:42:14;98380.44;;;25.79
11926;BMP180;6022;48.768;18.608;2022-09-01T13:44:42;98375.31;;;25.58
11926;BMP180;6022;48.768;18.608;2022-09-01T13:47:10;98387.84;;;25.54
11926;BMP180;6022;48.768;18.608;2022-09-01T13:49:59;98380.22;;;25.46
11926;BMP180;6022;48.768;18.608;2022-09-01T13:52:55;98372.25;;;25.82
11926;BMP180;6022;48.768;18.608;2022-09-01T13:55:29;98382.66;;;25.82
11926;BMP180;6022;48.768;18.608;2022-09-01T13:57:58;98384.56;;;26.00
11926;BMP180;6022;48.768;18.608;2022-09-01T14:00:31;98389.13;;;25.98
11926;BMP180;6022;48.768;18.608;2022-09-01T14:03:06;98387.13;;;25.33
11926;BMP180;6022;48.768;18.608;2022-09-01T14:05:43;98393.44;;;24.97
11926;BMP180;6022;48.768;18.608;2022-09-01T14:08:15;98393.22;;;24.99
11926;BMP180;6022;48.768;18.608;2022-09-01T14:10:47;98388.72;;;24.66
11926;BMP180;6022;48.768;18.608;2022-09-01T14:13:23;98383.84;;;24.77
11926;BMP180;6022;48.768;18.608;2022-09-01T14:15:51;98389.78;;;24.71
11926;BMP180;6022;48.768;18.608;2022-09-01T14:18:20;98382.69;;;24.44
11926;BMP180;6022;48.768;18.608;2022-09-01T14:20:50;98391.41;;;24.23
11926;BMP180;6022;48.768;18.608;2022-09-01T14:23:19;98387.81;;;24.24
11926;BMP180;6022;48.768;18.608;2022-09-01T14:25:49;98386.41;;;24.07
11926;BMP180;6022;48.768;18.608;2022-09-01T14:28:19;98394.41;;;24.05
11926;BMP180;6022;48.768;18.608;2022-09-01T14:30:49;98387.75;;;24.17
11926;BMP180;6022;48.768;18.608;2022-09-01T14:33:19;98396.72;;;24.15
11926;BMP180;6022;48.768;18.608;2022-09-01T14:35:50;98383.31;;;23.97
11926;BMP180;6022;48.768;18.608;2022-09-01T14:38:19;98387.78;;;24.03
11926;BMP180;6022;48.768;18.608;2022-09-01T14:40:47;98393.34;;;23.71
11926;BMP180;6022;48.768;18.608;2022-09-01T14:43:15;98402.81;;;23.64
11926;BMP180;6022;48.768;18.608;2022-09-01T14:45:43;98399.97;;;23.74
11926;BMP180;6022;48.768;18.608;2022-09-01T14:48:18;98396.53;;;23.73
11926;BMP180;6022;48.768;18.608;2022-09-01T14:50:48;98402.06;;;23.42
11926;BMP180;6022;48.768;18.608;2022-09-01T14:53:17;98394.72;;;23.31
11926;BMP180;6022;48.768;18.608;2022-09-01T14:55:45;98393.66;;;23.40
11926;BMP180;6022;48.768;18.608;2022-09-01T14:58:13;98395.63;;;23.38
11926;BMP180;6022;48.768;18.608;2022-09-01T15:00:40;98400.28;;;23.42
11926;BMP180;6022;48.768;18.608;2022-09-01T15:03:09;98402.03;;;23.27
11926;BMP180;6022;48.768;18.608;2022-09-01T15:05:37;98396.31;;;23.17
11926;BMP180;6022;48.768;18.608;2022-09-01T15:08:07;98405.16;;;23.23
11926;BMP180;6022;48.768;18.608;2022-09-01T15:10:40;98405.69;;;23.33
11926;BMP180;6022;48.768;18.608;2022-09-01T15:13:07;98399.91;;;23.31
11926;BMP180;6022;48.768;18.608;2022-09-01T15:15:35;98406.00;;;23.38
11926;BMP180;6022;48.768;18.608;2022-09-01T15:18:02;98405.63;;;23.41
11926;BMP180;6022;48.768;18.608;2022-09-01T15:20:30;98402.47;;;23.45
11926;BMP180;6022;48.768;18.608;2022-09-01T15:23:21;98404.38;;;23.37
11926;BMP180;6022;48.768;18.608;2022-09-01T15:25:52;98405.88;;;23.31
11926;BMP180;6022;48.768;18.608;2022-09-01T15:28:20;98403.19;;;23.25
11926;BMP180;6022;48.768;18.608;2022-09-01T15:30:49;98410.97;;;23.25
11926;BMP180;6022;48.768;18.608;2022-09-01T15:33:20;98405.44;;;23.06
11926;BMP180;6022;48.768;18.608;2022-09-01T15:35:48;98401.50;;;22.95
11926;BMP180;6022;48.768;18.608;2022-09-01T15:38:15;98406.25;;;22.84
11926;BMP180;6022;48.768;18.608;2022-09-01T15:40:44;98404.31;;;22.64
11926;BMP180;6022;48.768;18.608;2022-09-01T15:43:23;98413.78;;;22.71
11926;BMP180;6022;48.768;18.608;2022-09-01T15:45:51;98413.72;;;22.57